Metar Cercanos

 

LEPA - Palma De Mallorc, Spain
Distance from station: ONO 38km
Actualización: Mon, 03-Oct-2022 4:00pm CEST
Few Clouds
Few Clouds
 Viento del OSO
Viento: OSO 15 km/h
Temperatura: 25°C
Rocío: 18°C
Humedad: 65%
Barómetro: 1020 hPa
Clouds: Few Clouds
Visibility: 10 km
Cloud details: Few Clouds 914 m
2022/10/03 14:00 LEPA 031400Z 24008KT 9999 FEW030 25/18 Q1020 NOSIG
LEMH - Mahon/Menorca Is, Spain
Distance from station: ENE 105km
Actualización: Mon, 03-Oct-2022 4:00pm CEST
Few Clouds
Few Clouds
 Viento del OSO
Viento: OSO 17 km/h
Temperatura: 24°C
Rocío: 18°C
Humedad: 69%
Barómetro: 1021 hPa
Clouds: Few Clouds
Visibility: 10 km
Cloud details: Few Clouds 1067 m
2022/10/03 14:00 LEMH 031400Z 24009KT 200V270 9999 FEW035 24/18 Q1021
 
LEIB - Ibiza/Es Codola, Spain
Distance from station: OSO 165km
Actualización: Mon, 03-Oct-2022 4:00pm CEST
Few Clouds
Few Clouds
 Viento del E
Viento: E 7 km/h
Temperatura: 24°C
Rocío: 19°C
Humedad: 74%
Barómetro: 1020 hPa
Clouds: Few Clouds
Visibility: 10 km
Cloud details: Few Clouds 762 m
2022/10/03 14:00 LEIB 031400Z 10004KT 070V130 9999 FEW025 24/19 Q1020 NOSIG
LEBL - Barcelona Airpor, Spain
Distance from station: NNO 225km
Actualización: Mon, 03-Oct-2022 4:00pm CEST
Few Clouds
Few Clouds
 Viento del S
Viento: S 13 km/h
Temperatura: 24°C
Rocío: 18°C
Humedad: 69%
Barómetro: 1020 hPa
Clouds: Few Clouds
Visibility: 10 km
Cloud details: Few Clouds 549 m
2022/10/03 14:00 LEBL 031400Z 19007KT 150V230 9999 FEW018 24/18 Q1020 NOSIG
 
LEVC - Valencia (civ/Mi, Spain
Distance from station: NO 188km
Actualización: Mon, 03-Oct-2022 4:00pm CEST
Few Clouds
Few Clouds
 Viento del ESE
Viento: ESE 7 km/h
Temperatura: 25°C
Rocío: 17°C
Humedad: 61%
Barómetro: 1020 hPa
Clouds: Few Clouds
Visibility: 10 km
Cloud details: Few Clouds 914 m
2022/10/03 14:00 LEVC 031400Z 12004KT 9999 FEW030 25/17 Q1020 NOSIG
LEGE - Gerona/Costa Bra, Spain
Distance from station: N 276km
Actualización: Mon, 03-Oct-2022 4:00pm CEST
Despejado
Despejado
 Viento del S
Viento: S 17 km/h
Temperatura: 25°C
Rocío: 18°C
Humedad: 65%
Barómetro: 1020 hPa
Resumen: Despejado
Visibility: greater than 10 km
2022/10/03 14:00 LEGE 031400Z 18009KT 150V210 CAVOK 25/18 Q1020
 
LEAL - Alicante/El Alte, Spain
Distance from station: OSO 344km
Actualización: Mon, 03-Oct-2022 4:00pm CEST
Few Clouds
Few Clouds
 Viento del E
Viento: E 20 km/h
Temperatura: 25°C
Rocío: 20°C
Humedad: 74%
Barómetro: 1019 hPa
Clouds: Few Clouds
Visibility: 10 km
Cloud details: Few Clouds 762 m
2022/10/03 14:00 LEAL 031400Z 08011KT 9999 FEW025 25/20 Q1019 NOSIG
LEAM - Almeria Airport, Spain
Distance from station: SSO 56km
Actualización: Mon, 03-Oct-2022 4:00pm CEST
Despejado
Despejado
 Viento del S
Viento: S 13 km/h
Temperatura: 25°C
Rocío: 17°C
Humedad: 61%
Barómetro: 1019 hPa
Resumen: Despejado
Visibility: greater than 10 km
2022/10/03 14:00 LEAM 031400Z 19007KT 160V220 CAVOK 25/17 Q1019
 
LEZG - Zaragoza (mil/Ci, Spain
Distance from station: NO 431km
Actualización: Mon, 03-Oct-2022 4:00pm CEST
Despejado
Despejado
 Viento del O
Viento: O 6 km/h
Temperatura: 26°C
Rocío: 10°C
Humedad: 37%
Barómetro: 1020 hPa
Resumen: Despejado
Visibility: greater than 10 km
2022/10/03 14:00 LEZG 031400Z 28003KT 210V330 CAVOK 26/10 Q1020
LEMD - Madrid/Barajas, Spain
Distance from station: ONO 234km
Actualización: Mon, 03-Oct-2022 4:00pm CEST
Despejado
Despejado
 Viento del O
Viento: O 6 km/h
Temperatura: 28°C
Rocío: 5°C
Humedad: 23%
Barómetro: 1021 hPa
Resumen: Despejado
Visibility: greater than 10 km
2022/10/03 14:00 LEMD 031400Z 27003KT 200V310 CAVOK 28/05 Q1021 NOSIG
 
LEGR - Granada Airport, Spain
Distance from station: OSO 62km
Actualización: Mon, 03-Oct-2022 4:00pm CEST
Parcialmente nuboso
Parcialmente nuboso
 Viento del O
Viento: O 26 km/h
Temperatura: 31°C
Rocío: 5°C
Humedad: 19%
Barómetro: 1021 hPa
Clouds: Parcialmente nuboso
Visibility: 6 km
Cloud details: Parcialmente nuboso 1036 m
2022/10/03 14:00 LEGR 031400Z 27014KT 250V320 6000 SCT034 31/05 Q1021
LEMG - Malaga (civ/Mil), Spain
Distance from station: OSO 227km
Actualización: Mon, 03-Oct-2022 4:00pm CEST
Despejado
Despejado
 Viento del SSE
Viento: SSE 13 km/h
Temperatura: 27°C
Indice Calor: 28°C
Rocío: 17°C
Humedad: 54%
Barómetro: 1020 hPa
Resumen: Despejado
Visibility: greater than 10 km
2022/10/03 14:00 LEMG 031400Z 16007KT 110V210 CAVOK 27/17 Q1020 NOSIG
 
LEZL - Sevilla (civ/Mil, Spain
Distance from station: S 318km
Actualización: Mon, 03-Oct-2022 4:00pm CEST
Despejado
Despejado
 Viento del SSO
Viento: SSO 11 km/h
Temperatura: 31°C
Rocío: 10°C
Humedad: 27%
Barómetro: 1019 hPa
Resumen: Despejado
Visibility: greater than 10 km
2022/10/03 14:00 LEZL 031400Z 20006KT 160V270 CAVOK 31/10 Q1019 NOSIG
LEVT - Vitoria, Spain
Distance from station: NO 226km
Actualización: Mon, 03-Oct-2022 4:00pm CEST
Despejado
Despejado
 Viento del ESE
Viento: ESE 6 km/h
Temperatura: 26°C
Rocío: 11°C
Humedad: 39%
Barómetro: 1021 hPa
Resumen: Despejado
Visibility: greater than 10 km
2022/10/03 14:00 LEVT 031400Z 12003KT CAVOK 26/11 Q1021
 
LEBB - Bilbao/Sondica, Spain
Distance from station: NNO 235km
Actualización: Mon, 03-Oct-2022 4:00pm CEST
Despejado
Despejado
 Viento del O
Viento: O 13 km/h
Temperatura: 24°C
Rocío: 18°C
Humedad: 69%
Barómetro: 1021 hPa
Resumen: Despejado
Visibility: greater than 10 km
2022/10/03 14:00 LEBB 031400Z 28007KT 230V320 CAVOK 24/18 Q1021 NOSIG
LESO - San Sebastian/Fu, Spain
Distance from station: N 231km
Actualización: Mon, 03-Oct-2022 4:00pm CEST
Despejado
Despejado
 Viento del NNE
Viento: NNE 9 km/h
Temperatura: 22°C
Rocío: 17°C
Humedad: 73%
Barómetro: 1021 hPa
Resumen: Despejado
Visibility: greater than 10 km
2022/10/03 14:00 LESO 031400Z 03005KT 340V060 CAVOK 22/17 Q1021
 
LEVD - Valladolid(Mil/C, Spain
Distance from station: ONO 239km
Actualización: Mon, 03-Oct-2022 3:30pm CEST
Despejado
Despejado
 Viento del OSO
Viento: OSO 6 km/h
Temperatura: 27°C
Rocío: 3°C
Humedad: 21%
Barómetro: 1023 hPa
Resumen: Despejado
Visibility: greater than 10 km
2022/10/03 13:30 LEVD 031330Z 24003KT CAVOK 27/03 Q1023
LESA - Salamanca (civ/M, Spain
Distance from station: ONO 349km
Actualización: Mon, 03-Oct-2022 4:00pm CEST
Despejado
Despejado
 Viento del NNO
Viento: NNO 7 km/h
Temperatura: 29°C
Rocío: 2°C
Humedad: 18%
Barómetro: 1023 hPa
Resumen: Despejado
Visibility: greater than 10 km
2022/10/03 14:00 LESA 031400Z 33004KT 240V040 CAVOK 29/02 Q1023
 
LEXJ - Santander/Paraya, Spain
Distance from station: NNO 247km
Actualización: Mon, 03-Oct-2022 4:00pm CEST
Despejado
Despejado
 Viento del NE
Viento: NE 13 km/h
Temperatura: 20°C
Rocío: 17°C
Humedad: 83%
Barómetro: 1021 hPa
Resumen: Despejado
Visibility: greater than 10 km
2022/10/03 14:00 LEXJ 031400Z 04007KT 340V100 CAVOK 20/17 Q1021
LEAS - Asturias/Aviles, Spain
Distance from station: NO 214km
Actualización: Mon, 03-Oct-2022 4:00pm CEST
Despejado
Despejado
 Viento del ENE
Viento: ENE 13 km/h
Temperatura: 22°C
Rocío: 17°C
Humedad: 73%
Barómetro: 1021 hPa
Resumen: Despejado
Visibility: greater than 10 km
2022/10/03 14:00 LEAS 031400Z 06007KT 030V100 CAVOK 22/17 Q1021 NOSIG
 
LECO - La Coruna/Alvedr, Spain
Distance from station: ONO 222km
Actualización: Mon, 03-Oct-2022 3:30pm CEST
Despejado
Despejado
 Viento del NNE
Viento: NNE 13 km/h
Temperatura: 24°C
Rocío: 16°C
Humedad: 61%
Barómetro: 1020 hPa
Resumen: Despejado
Visibility: greater than 10 km
2022/10/03 13:30 LECO 031330Z 02007KT 340V050 CAVOK 24/16 Q1020 NOSIG
LEVX - Vigo/Peinador, Spain
Distance from station: O 214km
Actualización: Mon, 03-Oct-2022 4:00pm CEST
Despejado
Despejado
 Viento del O
Viento: O 11 km/h
Temperatura: 26°C
Rocío: 13°C
Humedad: 45%
Barómetro: 1021 hPa
Resumen: Despejado
Visibility: greater than 10 km
2022/10/03 14:00 LEVX 031400Z 28006KT 240V330 CAVOK 26/13 Q1021 NOSIG